Time;durP1;ratioP1;P1;durP2;ratioP2;P2;SDS_P1;SDS_P2;PMS_P1;PMS_P2;Temp;Humidity;BMP_temperature;BMP_pressure;BME280_temperature;BME280_humidity;BME280_pressure;Samples;Min_cycle;Max_cycle;Signal;HPM_P1;HPM_P2
2022/01/15 00:02:19;;;;;;;;;;;;;;;;;;5120379;28;20014;-79
2022/01/15 00:04:44;;;;;;;;;;;;;;;;;;5119717;28;20003;-79
2022/01/15 00:07:10;;;;;;;;;;;;;;;;;;5138706;28;19915;-79
2022/01/15 00:09:36;;;;;;;;;;;;;;;;;;5120559;28;19919;-79
2022/01/15 00:12:02;;;;;;;;;;;;;;;;;;5138248;28;19922;-79
2022/01/15 00:14:34;;;;;;;;;;;;;;;;;;5138793;28;19916;-78
2022/01/15 00:17:06;;;;;;;;;;;;;;;;;;5119819;27;19919;-78
2022/01/15 00:19:42;;;;;;;;;;;;;;;;;;5119669;28;19922;-79
2022/01/15 00:22:12;;;;;;;;;;;;;;;;;;5138321;28;19960;-79
2022/01/15 00:24:37;;;;;;;;;;;;;;;;;;5119589;28;20349;-79
2022/01/15 00:27:03;;;;;;;;;;;;;;;;;;5137936;27;19923;-79
2022/01/15 00:29:30;;;;;;;;;;;;;;;;;;5119835;28;19922;-79
2022/01/15 00:31:55;;;;;;;;;;;;;;;;;;5120075;27;19926;-79
2022/01/15 00:34:21;;;;;;;;;;;;;;;;;;5122374;27;19915;-79
2022/01/15 00:36:46;;;;;;;;;;;;;;;;;;5141857;27;19920;-79
2022/01/15 00:39:11;;;;;;;;;;;;;;;;;;5108532;28;19911;-79
2022/01/15 00:41:37;;;;;;;;;;;;;;;;;;5121780;28;19916;-79
2022/01/15 00:44:02;;;;;;;;;;;;;;;;;;5111004;28;19924;-79
2022/01/15 00:46:27;;;;;;;;;;;;;;;;;;5123649;28;19916;-79
2022/01/15 00:48:53;;;;;;;;;;;;;;;;;;5134962;27;19926;-79
2022/01/15 00:51:18;;;;;;;;;;;;;;;;;;5145238;27;19916;-79
2022/01/15 00:53:43;;;;;;;;;;;;;;;;;;5143636;27;19958;-79
2022/01/15 00:56:10;;;;;;;;;;;;;;;;;;5125425;27;19945;-79
2022/01/15 00:58:35;;;;;;;;;;;;;;;;;;5143146;27;19927;-78
2022/01/15 01:01:00;;;;;;;;;;;;;;;;;;5124602;27;19915;-79
2022/01/15 01:03:26;;;;;;;;;;;;;;;;;;5143533;27;20387;-79
2022/01/15 01:05:51;;;;;;;;;;;;;;;;;;5142546;27;19944;-79
2022/01/15 01:08:16;;;;;;;;;;;;;;;;;;5141476;27;19918;-79
2022/01/15 01:10:55;;;;;;;;;;;;;;;;;;5123612;27;19915;-79
2022/01/15 01:22:32;;;;;;;;;;;;;;;;;;5145338;27;19969;-78
2022/01/15 01:24:30;;;;;;;;;;;;;;;;;;5144398;27;19915;-79
2022/01/15 01:27:07;;;;;;;;;;;;;;;;;;5144038;27;19925;-79
2022/01/15 01:29:41;;;;;;;;;;;;;;;;;;5144281;27;20372;-79
2022/01/15 01:32:12;;;;;;;;;;;;;;;;;;5125371;27;19923;-80
2022/01/15 01:34:41;;;;;;;;;;;;;;;;;;5143510;27;19920;-79
2022/01/15 01:37:20;;;;;;;;;;;;;;;;;;5142985;27;19916;-79
2022/01/15 01:39:54;;;;;;;;;;;;;;;;;;5143118;27;19919;-79
2022/01/15 01:45:17;;;;;;;;;;;;;;;;;;5123418;27;19916;-79
2022/01/15 01:47:43;;;;;;;;;;;;;;;;;;5067569;27;19992;-79
2022/01/15 01:50:08;;;;;;;;;;;;;;;;;;5122724;27;20369;-79
2022/01/15 01:52:34;;;;;;;;;;;;;;;;;;5122635;27;20006;-79
2022/01/15 01:54:59;;;;;;;;;;;;;;;;;;5142566;27;19936;-79
2022/01/15 01:57:26;;;;;;;;;;;;;;;;;;5141339;27;20296;-79
2022/01/15 01:59:52;;;;;;;;;;;;;;;;;;5141646;27;20277;-79
2022/01/15 02:02:17;;;;;;;;;;;;;;;;;;5141410;27;19960;-78
2022/01/15 02:04:42;;;;;;;;;;;;;;;;;;5141400;27;20273;-78
2022/01/15 02:07:08;;;;;;;;;;;;;;;;;;5123363;27;19915;-78
2022/01/15 02:09:34;;;;;;;;;;;;;;;;;;5106211;27;19915;-79
2022/01/15 02:11:59;;;;;;;;;;;;;;;;;;5121963;27;19916;-79
2022/01/15 02:14:25;;;;;;;;;;;;;;;;;;5121701;27;20412;-79
2022/01/15 02:16:51;;;;;;;;;;;;;;;;;;5139002;27;19920;-79
2022/01/15 02:19:16;;;;;;;;;;;;;;;;;;5123318;27;19973;-79
2022/01/15 02:24:33;;;;;;;;;;;;;;;;;;5090902;27;20272;-79
2022/01/15 02:26:58;;;;;;;;;;;;;;;;;;5141276;27;19915;-79
2022/01/15 02:29:23;;;;;;;;;;;;;;;;;;5141061;27;19916;-79
2022/01/15 02:31:49;;;;;;;;;;;;;;;;;;5140271;27;19922;-78
2022/01/15 02:34:14;;;;;;;;;;;;;;;;;;5122002;27;19923;-79
2022/01/15 02:36:39;;;;;;;;;;;;;;;;;;5140403;27;20385;-79
2022/01/15 02:39:05;;;;;;;;;;;;;;;;;;5121898;27;19926;-79
2022/01/15 02:41:32;;;;;;;;;;;;;;;;;;5121881;27;20021;-79
2022/01/15 02:43:58;;;;;;;;;;;;;;;;;;5140428;27;19919;-79
2022/01/15 02:48:56;;;;;;;;;;;;;;;;;;5139981;27;19957;-78
2022/01/15 02:51:23;;;;;;;;;;;;;;;;;;5139714;27;19965;-79
2022/01/15 02:53:54;;;;;;;;;;;;;;;;;;5121421;27;20012;-78
2022/01/15 02:56:24;;;;;;;;;;;;;;;;;;5120365;27;19926;-79
2022/01/15 02:58:49;;;;;;;;;;;;;;;;;;5139058;27;19919;-79
2022/01/15 03:01:15;;;;;;;;;;;;;;;;;;5120894;27;20288;-79
2022/01/15 03:03:40;;;;;;;;;;;;;;;;;;5139529;27;19922;-79
2022/01/15 03:06:10;;;;;;;;;;;;;;;;;;5139858;27;19916;-79
2022/01/15 03:08:35;;;;;;;;;;;;;;;;;;5121918;27;19969;-79
2022/01/15 03:11:01;;;;;;;;;;;;;;;;;;5121021;27;19919;-78
2022/01/15 03:13:26;;;;;;;;;;;;;;;;;;5139418;27;19920;-79
2022/01/15 03:15:52;;;;;;;;;;;;;;;;;;5121800;28;19926;-79
2022/01/15 03:18:17;;;;;;;;;;;;;;;;;;5121585;28;20018;-79
2022/01/15 03:20:42;;;;;;;;;;;;;;;;;;5140324;27;19915;-79
2022/01/15 03:23:07;;;;;;;;;;;;;;;;;;5122227;28;19995;-79
2022/01/15 03:25:33;;;;;;;;;;;;;;;;;;5140614;28;19916;-79
2022/01/15 03:27:58;;;;;;;;;;;;;;;;;;5121983;28;19915;-79
2022/01/15 03:30:23;;;;;;;;;;;;;;;;;;5140259;28;19966;-79
2022/01/15 03:32:49;;;;;;;;;;;;;;;;;;5140283;28;19916;-79
2022/01/15 03:35:15;;;;;;;;;;;;;;;;;;5104464;28;19924;-78
2022/01/15 03:37:41;;;;;;;;;;;;;;;;;;5138978;27;19973;-78
2022/01/15 03:40:07;;;;;;;;;;;;;;;;;;5139004;28;19916;-79
2022/01/15 03:42:32;;;;;;;;;;;;;;;;;;5121189;28;19916;-79
2022/01/15 03:44:58;;;;;;;;;;;;;;;;;;5139235;28;19923;-78
2022/01/15 03:47:23;;;;;;;;;;;;;;;;;;5138440;27;19915;-78
2022/01/15 03:49:48;;;;;;;;;;;;;;;;;;5140629;28;19968;-79
2022/01/15 03:52:13;;;;;;;;;;;;;;;;;;5122871;28;19968;-79
2022/01/15 03:54:39;;;;;;;;;;;;;;;;;;5141723;28;19923;-79
2022/01/15 03:57:04;;;;;;;;;;;;;;;;;;5123603;27;20044;-79
2022/01/15 03:59:30;;;;;;;;;;;;;;;;;;5141417;28;19915;-79
2022/01/15 04:01:55;;;;;;;;;;;;;;;;;;5122001;28;19919;-79
2022/01/15 04:04:21;;;;;;;;;;;;;;;;;;5121358;28;19965;-79
2022/01/15 04:06:46;;;;;;;;;;;;;;;;;;5140542;27;19922;-79
2022/01/15 04:09:12;;;;;;;;;;;;;;;;;;5143944;27;20396;-79
2022/01/15 04:11:38;;;;;;;;;;;;;;;;;;5125702;27;19919;-79
2022/01/15 04:14:04;;;;;;;;;;;;;;;;;;5125249;27;19975;-79
2022/01/15 04:16:30;;;;;;;;;;;;;;;;;;5143288;27;19919;-79
2022/01/15 04:18:58;;;;;;;;;;;;;;;;;;5142488;27;19927;-78
2022/01/15 04:21:23;;;;;;;;;;;;;;;;;;5142721;27;19916;-79
2022/01/15 04:23:49;;;;;;;;;;;;;;;;;;5142819;27;19915;-78
2022/01/15 04:26:15;;;;;;;;;;;;;;;;;;5142755;27;19915;-79
2022/01/15 04:28:41;;;;;;;;;;;;;;;;;;5142715;27;19958;-79
2022/01/15 04:31:07;;;;;;;;;;;;;;;;;;5142359;27;19919;-79
2022/01/15 04:33:36;;;;;;;;;;;;;;;;;;5124429;27;19940;-78
2022/01/15 04:36:02;;;;;;;;;;;;;;;;;;5138691;27;19919;-79
2022/01/15 04:38:30;;;;;;;;;;;;;;;;;;5123956;27;20409;-78
2022/01/15 04:40:55;;;;;;;;;;;;;;;;;;5124147;27;19923;-78
2022/01/15 04:43:20;;;;;;;;;;;;;;;;;;5123974;27;19915;-79
2022/01/15 04:45:45;;;;;;;;;;;;;;;;;;5123595;27;20277;-78
2022/01/15 04:48:11;;;;;;;;;;;;;;;;;;5120225;28;19972;-79
2022/01/15 04:50:36;;;;;;;;;;;;;;;;;;5121983;28;20003;-78
2022/01/15 04:53:01;;;;;;;;;;;;;;;;;;5120880;28;20009;-79
2022/01/15 04:55:27;;;;;;;;;;;;;;;;;;5120500;28;19920;-79
2022/01/15 04:57:52;;;;;;;;;;;;;;;;;;5121582;28;19922;-78
2022/01/15 05:00:18;;;;;;;;;;;;;;;;;;5122308;28;19916;-78
2022/01/15 05:02:44;;;;;;;;;;;;;;;;;;5123015;28;19916;-78
2022/01/15 05:05:09;;;;;;;;;;;;;;;;;;5121369;28;19973;-78
2022/01/15 05:07:35;;;;;;;;;;;;;;;;;;5121369;28;19919;-78
2022/01/15 05:10:00;;;;;;;;;;;;;;;;;;5103199;28;20338;-79
2022/01/15 05:14:51;;;;;;;;;;;;;;;;;;5121049;28;20009;-79
2022/01/15 05:17:16;;;;;;;;;;;;;;;;;;5121138;28;19920;-78
2022/01/15 05:19:42;;;;;;;;;;;;;;;;;;5118633;28;20361;-79
2022/01/15 05:22:07;;;;;;;;;;;;;;;;;;5122374;28;19938;-78
2022/01/15 05:24:33;;;;;;;;;;;;;;;;;;5124278;28;19916;-79
2022/01/15 05:26:58;;;;;;;;;;;;;;;;;;5122367;28;19916;-78
2022/01/15 05:29:24;;;;;;;;;;;;;;;;;;5122365;28;19920;-79
2022/01/15 05:31:49;;;;;;;;;;;;;;;;;;5122942;28;19916;-78
2022/01/15 05:34:14;;;;;;;;;;;;;;;;;;5120832;28;19925;-78
2022/01/15 05:36:40;;;;;;;;;;;;;;;;;;5122956;28;19920;-79
2022/01/15 05:39:06;;;;;;;;;;;;;;;;;;5121434;28;20392;-79
2022/01/15 05:41:31;;;;;;;;;;;;;;;;;;5120586;28;19951;-78
2022/01/15 05:44:01;;;;;;;;;;;;;;;;;;5103850;28;20062;-79
2022/01/15 05:46:27;;;;;;;;;;;;;;;;;;5122670;28;19919;-79
2022/01/15 05:48:52;;;;;;;;;;;;;;;;;;5103901;28;20011;-78
2022/01/15 05:51:17;;;;;;;;;;;;;;;;;;5118228;28;19943;-79
2022/01/15 05:53:43;;;;;;;;;;;;;;;;;;5102823;28;19911;-79
2022/01/15 05:56:08;;;;;;;;;;;;;;;;;;5121021;28;19926;-79
2022/01/15 05:58:33;;;;;;;;;;;;;;;;;;5121061;28;20292;-79
2022/01/15 06:00:59;;;;;;;;;;;;;;;;;;5109092;28;19969;-79
2022/01/15 06:03:24;;;;;;;;;;;;;;;;;;5098787;28;20398;-79
2022/01/15 06:05:49;;;;;;;;;;;;;;;;;;5082382;28;19919;-79
2022/01/15 06:08:15;;;;;;;;;;;;;;;;;;5099442;28;19923;-79
2022/01/15 06:10:41;;;;;;;;;;;;;;;;;;5099848;28;19969;-79
2022/01/15 06:13:06;;;;;;;;;;;;;;;;;;5100477;28;19971;-79
2022/01/15 06:15:31;;;;;;;;;;;;;;;;;;5099406;28;19920;-79
2022/01/15 06:17:57;;;;;;;;;;;;;;;;;;5098973;28;19923;-79
2022/01/15 06:20:22;;;;;;;;;;;;;;;;;;5109518;28;20014;-79
2022/01/15 06:22:47;;;;;;;;;;;;;;;;;;5100440;28;19923;-79
2022/01/15 06:25:13;;;;;;;;;;;;;;;;;;5099009;28;19944;-79
2022/01/15 06:27:38;;;;;;;;;;;;;;;;;;5100813;28;19916;-79
2022/01/15 06:30:04;;;;;;;;;;;;;;;;;;5099818;28;19923;-79
2022/01/15 06:32:35;;;;;;;;;;;;;;;;;;5099839;28;20022;-79
2022/01/15 06:35:01;;;;;;;;;;;;;;;;;;5100665;28;19916;-79
2022/01/15 06:37:26;;;;;;;;;;;;;;;;;;5098739;28;19915;-79
2022/01/15 06:39:51;;;;;;;;;;;;;;;;;;5098787;28;19975;-79
2022/01/15 06:42:16;;;;;;;;;;;;;;;;;;5101885;28;20281;-78
2022/01/15 06:44:42;;;;;;;;;;;;;;;;;;5119716;28;19916;-79
2022/01/15 06:47:09;;;;;;;;;;;;;;;;;;5119909;28;19916;-78
2022/01/15 06:49:35;;;;;;;;;;;;;;;;;;5118404;28;19976;-79
2022/01/15 06:52:00;;;;;;;;;;;;;;;;;;5118959;28;19961;-79
2022/01/15 06:54:25;;;;;;;;;;;;;;;;;;5120657;28;20006;-79
2022/01/15 06:56:51;;;;;;;;;;;;;;;;;;5120699;28;19924;-79
2022/01/15 06:59:16;;;;;;;;;;;;;;;;;;5119470;28;19956;-79
2022/01/15 07:01:41;;;;;;;;;;;;;;;;;;5119792;28;19966;-79
2022/01/15 07:04:07;;;;;;;;;;;;;;;;;;5129410;28;19931;-79
2022/01/15 07:06:32;;;;;;;;;;;;;;;;;;5118723;28;19942;-79
2022/01/15 07:08:57;;;;;;;;;;;;;;;;;;5118598;28;19916;-79
2022/01/15 07:11:23;;;;;;;;;;;;;;;;;;5116620;28;19916;-79
2022/01/15 07:13:48;;;;;;;;;;;;;;;;;;5117952;28;19923;-79
2022/01/15 07:16:13;;;;;;;;;;;;;;;;;;5117760;28;20293;-79
2022/01/15 07:18:39;;;;;;;;;;;;;;;;;;5118178;28;19916;-79
2022/01/15 07:21:04;;;;;;;;;;;;;;;;;;5118657;28;19919;-79
2022/01/15 07:23:29;;;;;;;;;;;;;;;;;;5117613;28;19938;-79
2022/01/15 07:25:55;;;;;;;;;;;;;;;;;;5117660;28;20391;-79
2022/01/15 07:28:20;;;;;;;;;;;;;;;;;;5118238;28;19916;-79
2022/01/15 07:30:46;;;;;;;;;;;;;;;;;;5099593;28;19920;-79
2022/01/15 07:33:12;;;;;;;;;;;;;;;;;;5115840;28;19941;-79
2022/01/15 07:35:42;;;;;;;;;;;;;;;;;;5096903;28;19969;-80
2022/01/15 07:38:07;;;;;;;;;;;;;;;;;;5098517;28;19924;-80
2022/01/15 07:40:33;;;;;;;;;;;;;;;;;;5110951;28;20280;-78
2022/01/15 07:42:58;;;;;;;;;;;;;;;;;;5119938;28;19955;-78
2022/01/15 07:45:23;;;;;;;;;;;;;;;;;;5115590;28;19923;-77
2022/01/15 07:47:49;;;;;;;;;;;;;;;;;;5099576;28;19924;-77
2022/01/15 07:50:17;;;;;;;;;;;;;;;;;;5118191;28;19922;-76
2022/01/15 07:52:42;;;;;;;;;;;;;;;;;;5117260;28;19915;-76
2022/01/15 07:55:07;;;;;;;;;;;;;;;;;;5117403;28;19915;-75
2022/01/15 07:57:33;;;;;;;;;;;;;;;;;;5117829;28;20287;-75
2022/01/15 07:59:58;;;;;;;;;;;;;;;;;;5118401;27;20361;-76
2022/01/15 08:02:24;;;;;;;;;;;;;;;;;;5136931;27;19929;-76
2022/01/15 08:04:50;;;;;;;;;;;;;;;;;;5119778;27;20006;-76
2022/01/15 08:07:17;;;;;;;;;;;;;;;;;;5119852;27;20369;-77
2022/01/15 08:09:42;;;;;;;;;;;;;;;;;;5138152;27;20019;-76
2022/01/15 08:12:14;;;;;;;;;;;;;;;;;;5119624;27;20061;-76
2022/01/15 08:14:39;;;;;;;;;;;;;;;;;;5119542;27;19915;-77
2022/01/15 08:17:04;;;;;;;;;;;;;;;;;;5138529;27;19968;-77
2022/01/15 08:19:29;;;;;;;;;;;;;;;;;;5138583;27;19923;-76
2022/01/15 08:21:55;;;;;;;;;;;;;;;;;;5140300;27;20019;-79
2022/01/15 08:24:20;;;;;;;;;;;;;;;;;;5139402;27;19923;-80
2022/01/15 08:26:47;;;;;;;;;;;;;;;;;;5123629;27;19980;-80
2022/01/15 08:29:12;;;;;;;;;;;;;;;;;;5123313;27;20322;-78
2022/01/15 08:31:37;;;;;;;;;;;;;;;;;;5125259;27;20418;-79
2022/01/15 08:34:03;;;;;;;;;;;;;;;;;;5120653;28;19923;-77
2022/01/15 08:36:32;;;;;;;;;;;;;;;;;;5135640;27;19923;-77
2022/01/15 08:38:57;;;;;;;;;;;;;;;;;;5139381;27;19919;-78
2022/01/15 08:41:23;;;;;;;;;;;;;;;;;;5139719;27;19923;-78
2022/01/15 08:43:49;;;;;;;;;;;;;;;;;;5139659;27;19915;-77
2022/01/15 08:46:16;;;;;;;;;;;;;;;;;;5140956;27;19916;-77
2022/01/15 08:48:42;;;;;;;;;;;;;;;;;;5142585;27;19930;-78
2022/01/15 08:51:07;;;;;;;;;;;;;;;;;;5120719;27;19955;-77
2022/01/15 08:53:33;;;;;;;;;;;;;;;;;;5137998;27;19915;-77
2022/01/15 08:55:58;;;;;;;;;;;;;;;;;;5119430;27;19959;-78
2022/01/15 08:58:25;;;;;;;;;;;;;;;;;;5121194;27;19922;-78
2022/01/15 09:00:57;;;;;;;;;;;;;;;;;;5138582;27;19923;-79
2022/01/15 09:03:28;;;;;;;;;;;;;;;;;;5102573;27;19938;-81
2022/01/15 09:05:54;;;;;;;;;;;;;;;;;;5129604;27;20369;-80
2022/01/15 09:08:24;;;;;;;;;;;;;;;;;;5146026;27;19944;-80
2022/01/15 09:10:50;;;;;;;;;;;;;;;;;;5144525;27;20366;-80
2022/01/15 09:13:15;;;;;;;;;;;;;;;;;;5126628;27;19922;-79
2022/01/15 09:15:41;;;;;;;;;;;;;;;;;;5139830;27;19945;-77
2022/01/15 09:18:06;;;;;;;;;;;;;;;;;;5136799;27;19941;-78
2022/01/15 09:20:31;;;;;;;;;;;;;;;;;;5137336;27;20505;-78
2022/01/15 09:22:57;;;;;;;;;;;;;;;;;;5139182;27;19915;-78
2022/01/15 09:25:22;;;;;;;;;;;;;;;;;;5140852;27;20051;-79
2022/01/15 09:30:32;;;;;;;;;;;;;;;;;;5121961;27;19915;-78
2022/01/15 09:32:58;;;;;;;;;;;;;;;;;;5112781;28;19938;-78
2022/01/15 09:35:24;;;;;;;;;;;;;;;;;;5117271;28;19930;-78
2022/01/15 09:37:51;;;;;;;;;;;;;;;;;;5118784;28;19923;-77
2022/01/15 09:40:17;;;;;;;;;;;;;;;;;;5116538;28;19919;-79
2022/01/15 09:42:47;;;;;;;;;;;;;;;;;;5119499;28;20006;-78
2022/01/15 09:45:13;;;;;;;;;;;;;;;;;;5120058;28;19963;-78
2022/01/15 09:47:38;;;;;;;;;;;;;;;;;;5139468;27;19934;-79
2022/01/15 09:50:05;;;;;;;;;;;;;;;;;;5140067;27;20394;-79
2022/01/15 09:52:32;;;;;;;;;;;;;;;;;;5140625;27;19963;-80
2022/01/15 09:54:57;;;;;;;;;;;;;;;;;;5141661;27;20386;-84
2022/01/15 09:57:22;;;;;;;;;;;;;;;;;;5142181;27;19916;-80
2022/01/15 09:59:48;;;;;;;;;;;;;;;;;;5141836;27;19916;-81
2022/01/15 10:02:14;;;;;;;;;;;;;;;;;;5150639;27;19915;-80
2022/01/15 10:04:39;;;;;;;;;;;;;;;;;;5148034;27;19959;-82
2022/01/15 10:07:06;;;;;;;;;;;;;;;;;;5148342;27;20289;-80
2022/01/15 10:09:31;;;;;;;;;;;;;;;;;;5145895;27;19911;-80
2022/01/15 10:11:57;;;;;;;;;;;;;;;;;;5145598;27;19922;-80
2022/01/15 10:14:23;;;;;;;;;;;;;;;;;;5139532;27;19960;-80
2022/01/15 10:16:48;;;;;;;;;;;;;;;;;;5120910;28;20014;-81
2022/01/15 10:19:23;;;;;;;;;;;;;;;;;;5118713;28;20299;-80
2022/01/15 10:22:03;;;;;;;;;;;;;;;;;;5118728;28;20293;-79
2022/01/15 10:24:29;;;;;;;;;;;;;;;;;;5119187;28;19923;-79
2022/01/15 10:26:54;;;;;;;;;;;;;;;;;;5119045;28;19915;-79
2022/01/15 10:29:19;;;;;;;;;;;;;;;;;;5100022;28;19923;-80
2022/01/15 10:31:44;;;;;;;;;;;;;;;;;;5118453;28;19915;-79
2022/01/15 10:34:26;;;;;;;;;;;;;;;;;;5118399;28;20389;-79
2022/01/15 10:36:51;;;;;;;;;;;;;;;;;;5118067;28;19991;-80
2022/01/15 10:39:19;;;;;;;;;;;;;;;;;;5118513;28;19946;-80
2022/01/15 10:41:45;;;;;;;;;;;;;;;;;;5117596;28;19919;-82
2022/01/15 10:44:27;;;;;;;;;;;;;;;;;;5117625;28;20003;-81
2022/01/15 10:46:59;;;;;;;;;;;;;;;;;;5118421;28;19916;-80
2022/01/15 10:49:25;;;;;;;;;;;;;;;;;;5118956;28;19980;-79
2022/01/15 10:52:08;;;;;;;;;;;;;;;;;;5118797;28;19916;-80
2022/01/15 10:54:35;;;;;;;;;;;;;;;;;;5119112;28;19916;-79
2022/01/15 10:57:10;;;;;;;;;;;;;;;;;;5118464;28;19923;-81
2022/01/15 10:59:36;;;;;;;;;;;;;;;;;;5117019;28;20319;-78
2022/01/15 11:02:17;;;;;;;;;;;;;;;;;;5117366;28;20010;-78
2022/01/15 11:04:42;;;;;;;;;;;;;;;;;;5121493;27;19916;-79
2022/01/15 11:07:11;;;;;;;;;;;;;;;;;;5136722;27;19923;-79
2022/01/15 11:09:36;;;;;;;;;;;;;;;;;;5136358;27;19915;-78
2022/01/15 11:12:04;;;;;;;;;;;;;;;;;;5136134;27;19919;-78
2022/01/15 11:14:29;;;;;;;;;;;;;;;;;;5136302;27;19923;-78
2022/01/15 11:16:57;;;;;;;;;;;;;;;;;;5116893;27;19920;-78
2022/01/15 11:19:23;;;;;;;;;;;;;;;;;;5140213;27;19916;-79
2022/01/15 11:21:49;;;;;;;;;;;;;;;;;;5142569;27;19919;-78
2022/01/15 11:24:15;;;;;;;;;;;;;;;;;;5140342;28;19915;-80
2022/01/15 11:26:41;;;;;;;;;;;;;;;;;;5142827;28;19915;-80
2022/01/15 11:29:06;;;;;;;;;;;;;;;;;;5124751;28;19926;-80
2022/01/15 11:31:32;;;;;;;;;;;;;;;;;;5123863;28;20458;-78
2022/01/15 11:33:59;;;;;;;;;;;;;;;;;;5115539;28;19927;-80
2022/01/15 11:36:38;;;;;;;;;;;;;;;;;;5095185;28;19964;-77
2022/01/15 11:39:11;;;;;;;;;;;;;;;;;;5128143;28;20022;-78
2022/01/15 11:41:43;;;;;;;;;;;;;;;;;;5125009;28;19941;-78
2022/01/15 11:44:10;;;;;;;;;;;;;;;;;;5129877;28;19922;-79
2022/01/15 11:46:40;;;;;;;;;;;;;;;;;;5116196;28;19915;-78
2022/01/15 11:49:24;;;;;;;;;;;;;;;;;;5114903;28;20038;-79
2022/01/15 11:51:53;;;;;;;;;;;;;;;;;;5081422;28;19915;-78
2022/01/15 11:54:19;;;;;;;;;;;;;;;;;;5116592;28;19923;-77
2022/01/15 11:56:46;;;;;;;;;;;;;;;;;;5094918;28;19920;-77
2022/01/15 11:59:24;;;;;;;;;;;;;;;;;;5113270;28;19915;-75
2022/01/15 12:01:50;;;;;;;;;;;;;;;;;;5130842;28;19915;-75
2022/01/15 12:04:27;;;;;;;;;;;;;;;;;;5135017;28;20343;-76
2022/01/15 12:07:05;;;;;;;;;;;;;;;;;;5135059;28;20314;-75
2022/01/15 12:09:30;;;;;;;;;;;;;;;;;;5117018;28;20354;-75
2022/01/15 12:11:55;;;;;;;;;;;;;;;;;;5134703;28;19927;-75
2022/01/15 12:14:39;;;;;;;;;;;;;;;;;;5135430;28;19957;-75
2022/01/15 12:17:23;;;;;;;;;;;;;;;;;;5135246;27;19925;-75
2022/01/15 12:19:49;;;;;;;;;;;;;;;;;;5134819;28;19963;-75
2022/01/15 12:22:33;;;;;;;;;;;;;;;;;;5134125;28;19962;-75
2022/01/15 12:24:58;;;;;;;;;;;;;;;;;;5133933;28;19919;-75
2022/01/15 12:27:27;;;;;;;;;;;;;;;;;;5134231;27;20412;-75
2022/01/15 12:30:11;;;;;;;;;;;;;;;;;;5138031;27;19916;-75
2022/01/15 12:32:40;;;;;;;;;;;;;;;;;;5138011;27;19947;-75
2022/01/15 12:35:05;;;;;;;;;;;;;;;;;;5138001;27;19915;-75
2022/01/15 12:37:31;;;;;;;;;;;;;;;;;;5138183;27;19926;-75
2022/01/15 12:39:57;;;;;;;;;;;;;;;;;;5138364;27;19919;-75
2022/01/15 12:42:29;;;;;;;;;;;;;;;;;;5138032;27;19916;-75
2022/01/15 12:44:55;;;;;;;;;;;;;;;;;;5138152;27;19915;-75
2022/01/15 12:47:21;;;;;;;;;;;;;;;;;;5137109;27;19962;-75
2022/01/15 12:49:47;;;;;;;;;;;;;;;;;;5119638;27;19923;-75
2022/01/15 12:52:20;;;;;;;;;;;;;;;;;;5119928;27;20013;-75
2022/01/15 12:54:47;;;;;;;;;;;;;;;;;;5138095;27;20059;-75
2022/01/15 12:57:12;;;;;;;;;;;;;;;;;;5137217;27;19919;-75
2022/01/15 12:59:39;;;;;;;;;;;;;;;;;;5137504;27;19915;-75
2022/01/15 13:02:04;;;;;;;;;;;;;;;;;;5136243;27;19934;-75
2022/01/15 13:04:30;;;;;;;;;;;;;;;;;;5137317;27;20435;-75
2022/01/15 13:07:02;;;;;;;;;;;;;;;;;;5137657;27;20353;-75
2022/01/15 13:09:40;;;;;;;;;;;;;;;;;;5137729;27;19915;-75
2022/01/15 13:12:07;;;;;;;;;;;;;;;;;;5137721;27;19916;-75
2022/01/15 13:14:37;;;;;;;;;;;;;;;;;;5137484;27;19916;-75
2022/01/15 13:17:02;;;;;;;;;;;;;;;;;;5137964;27;19923;-75
2022/01/15 13:19:40;;;;;;;;;;;;;;;;;;5138569;27;19961;-75
2022/01/15 13:22:09;;;;;;;;;;;;;;;;;;5138306;27;19970;-75
2022/01/15 13:24:45;;;;;;;;;;;;;;;;;;5138060;27;19960;-75
2022/01/15 13:27:10;;;;;;;;;;;;;;;;;;5138042;27;19920;-75
2022/01/15 13:29:42;;;;;;;;;;;;;;;;;;5138175;27;19926;-75
2022/01/15 13:32:08;;;;;;;;;;;;;;;;;;5138258;27;19915;-75
2022/01/15 13:34:35;;;;;;;;;;;;;;;;;;5137905;27;19922;-75
2022/01/15 13:37:12;;;;;;;;;;;;;;;;;;5101900;27;19944;-75
2022/01/15 13:39:38;;;;;;;;;;;;;;;;;;5136091;27;20596;-75
2022/01/15 13:42:04;;;;;;;;;;;;;;;;;;5117559;27;19920;-75
2022/01/15 13:44:35;;;;;;;;;;;;;;;;;;5136392;27;20276;-75
2022/01/15 13:47:07;;;;;;;;;;;;;;;;;;5136410;27;20413;-75
2022/01/15 13:53:05;;;;;;;;;;;;;;;;;;5136405;27;19919;-75
2022/01/15 13:55:10;;;;;;;;;;;;;;;;;;5140523;27;19938;-75
2022/01/15 13:57:36;;;;;;;;;;;;;;;;;;5122454;27;19923;-75
2022/01/15 14:00:06;;;;;;;;;;;;;;;;;;5137459;27;20280;-75
2022/01/15 14:02:32;;;;;;;;;;;;;;;;;;5137157;27;19922;-75
2022/01/15 14:05:10;;;;;;;;;;;;;;;;;;5137811;27;20291;-75
2022/01/15 14:07:37;;;;;;;;;;;;;;;;;;5137534;27;19916;-75
2022/01/15 14:10:06;;;;;;;;;;;;;;;;;;5136776;27;19922;-75
2022/01/15 14:12:32;;;;;;;;;;;;;;;;;;5117644;27;19958;-75
2022/01/15 14:15:03;;;;;;;;;;;;;;;;;;5118024;27;20000;-75
2022/01/15 14:17:28;;;;;;;;;;;;;;;;;;5136291;27;19924;-75
2022/01/15 14:22:26;;;;;;;;;;;;;;;;;;5136268;27;19960;-75
2022/01/15 14:24:53;;;;;;;;;;;;;;;;;;5136075;27;19916;-75
2022/01/15 14:27:19;;;;;;;;;;;;;;;;;;5135981;27;19915;-75
2022/01/15 14:29:44;;;;;;;;;;;;;;;;;;5134518;27;20005;-75
2022/01/15 14:32:09;;;;;;;;;;;;;;;;;;5116617;27;19922;-76
2022/01/15 14:34:35;;;;;;;;;;;;;;;;;;5135346;27;19923;-75
2022/01/15 14:37:00;;;;;;;;;;;;;;;;;;5135609;27;19976;-78
2022/01/15 14:39:25;;;;;;;;;;;;;;;;;;5135568;27;19962;-76
2022/01/15 14:41:51;;;;;;;;;;;;;;;;;;5135506;27;20376;-76
2022/01/15 14:44:16;;;;;;;;;;;;;;;;;;5135659;27;19916;-76
2022/01/15 14:46:42;;;;;;;;;;;;;;;;;;5135842;27;19919;-76
2022/01/15 14:49:07;;;;;;;;;;;;;;;;;;5135640;27;19925;-76
2022/01/15 14:51:32;;;;;;;;;;;;;;;;;;5135563;27;19922;-77
2022/01/15 14:53:58;;;;;;;;;;;;;;;;;;5135518;27;19919;-76
2022/01/15 14:56:23;;;;;;;;;;;;;;;;;;5135402;27;19964;-76
2022/01/15 14:58:48;;;;;;;;;;;;;;;;;;5135528;27;19916;-76
2022/01/15 15:01:15;;;;;;;;;;;;;;;;;;5135582;27;19915;-76
2022/01/15 15:03:41;;;;;;;;;;;;;;;;;;5135542;27;19962;-76
2022/01/15 15:06:07;;;;;;;;;;;;;;;;;;5135627;27;20018;-76
2022/01/15 15:08:32;;;;;;;;;;;;;;;;;;5135538;27;19990;-76
2022/01/15 15:10:58;;;;;;;;;;;;;;;;;;5117110;28;19923;-76
2022/01/15 15:13:24;;;;;;;;;;;;;;;;;;5135653;27;19912;-76
2022/01/15 15:15:50;;;;;;;;;;;;;;;;;;5135065;27;20296;-76
2022/01/15 15:18:15;;;;;;;;;;;;;;;;;;5136155;27;19922;-77
2022/01/15 15:20:41;;;;;;;;;;;;;;;;;;5135356;27;19919;-77
2022/01/15 15:23:06;;;;;;;;;;;;;;;;;;5135071;27;19919;-77
2022/01/15 15:25:31;;;;;;;;;;;;;;;;;;5135100;27;20377;-77
2022/01/15 15:27:57;;;;;;;;;;;;;;;;;;5136270;27;20006;-79
2022/01/15 15:30:23;;;;;;;;;;;;;;;;;;5136140;28;19923;-77
2022/01/15 15:32:48;;;;;;;;;;;;;;;;;;5135191;28;19915;-78
2022/01/15 15:35:14;;;;;;;;;;;;;;;;;;5135290;28;20281;-77
2022/01/15 15:37:39;;;;;;;;;;;;;;;;;;5114396;28;19923;-78
2022/01/15 15:40:05;;;;;;;;;;;;;;;;;;5134813;28;19916;-78
2022/01/15 15:42:31;;;;;;;;;;;;;;;;;;5118130;28;19915;-78
2022/01/15 15:44:57;;;;;;;;;;;;;;;;;;5133627;28;19963;-75
2022/01/15 15:47:22;;;;;;;;;;;;;;;;;;5133256;27;19974;-75
2022/01/15 15:49:47;;;;;;;;;;;;;;;;;;5134143;28;19966;-75
2022/01/15 15:52:13;;;;;;;;;;;;;;;;;;5133573;28;19922;-75
2022/01/15 15:54:38;;;;;;;;;;;;;;;;;;5133694;28;20398;-75
2022/01/15 15:57:09;;;;;;;;;;;;;;;;;;5134403;27;19923;-75
2022/01/15 15:59:35;;;;;;;;;;;;;;;;;;5134465;28;19966;-76
2022/01/15 16:02:02;;;;;;;;;;;;;;;;;;5133554;27;20372;-75
2022/01/15 16:04:27;;;;;;;;;;;;;;;;;;5137810;27;19915;-75
2022/01/15 16:06:52;;;;;;;;;;;;;;;;;;5137649;27;20010;-76
2022/01/15 16:09:18;;;;;;;;;;;;;;;;;;5137958;27;19937;-75
2022/01/15 16:11:43;;;;;;;;;;;;;;;;;;5138077;27;19936;-75
2022/01/15 16:14:09;;;;;;;;;;;;;;;;;;5119749;27;19915;-75
2022/01/15 16:16:34;;;;;;;;;;;;;;;;;;5137944;27;19926;-75
2022/01/15 16:19:00;;;;;;;;;;;;;;;;;;5137559;27;19915;-75
2022/01/15 16:21:26;;;;;;;;;;;;;;;;;;5137935;27;19976;-75
2022/01/15 16:23:51;;;;;;;;;;;;;;;;;;5138082;27;19915;-77
2022/01/15 16:26:17;;;;;;;;;;;;;;;;;;5138164;27;19915;-76
2022/01/15 16:28:43;;;;;;;;;;;;;;;;;;5118681;27;20337;-77
2022/01/15 16:31:08;;;;;;;;;;;;;;;;;;5137265;27;19973;-76
2022/01/15 16:33:33;;;;;;;;;;;;;;;;;;5119391;27;20395;-76
2022/01/15 16:35:59;;;;;;;;;;;;;;;;;;5137676;27;20014;-77
2022/01/15 16:38:28;;;;;;;;;;;;;;;;;;5137662;27;19919;-77
2022/01/15 16:40:54;;;;;;;;;;;;;;;;;;5137610;27;20009;-77
2022/01/15 16:43:19;;;;;;;;;;;;;;;;;;5137548;27;19970;-77
2022/01/15 16:45:44;;;;;;;;;;;;;;;;;;5137536;27;19915;-77
2022/01/15 16:48:10;;;;;;;;;;;;;;;;;;5136554;27;20280;-77
2022/01/15 16:50:37;;;;;;;;;;;;;;;;;;5137334;27;20249;-77
2022/01/15 16:53:02;;;;;;;;;;;;;;;;;;5118127;27;20276;-76
2022/01/15 16:55:28;;;;;;;;;;;;;;;;;;5137206;27;19921;-77
2022/01/15 16:57:54;;;;;;;;;;;;;;;;;;5137062;27;19926;-77
2022/01/15 17:00:19;;;;;;;;;;;;;;;;;;5137142;27;19941;-77
2022/01/15 17:02:45;;;;;;;;;;;;;;;;;;5118190;27;20380;-77
2022/01/15 17:05:11;;;;;;;;;;;;;;;;;;5136961;27;19916;-77
2022/01/15 17:07:36;;;;;;;;;;;;;;;;;;5137033;27;19920;-76
2022/01/15 17:10:03;;;;;;;;;;;;;;;;;;5136962;27;19915;-77
2022/01/15 17:12:28;;;;;;;;;;;;;;;;;;5137050;27;19931;-77